Time;durP1;ratioP1;P1;durP2;ratioP2;P2;SDS_P1;SDS_P2;PMS_P1;PMS_P2;Temp;Humidity;BMP_temperature;BMP_pressure;BME280_temperature;BME280_humidity;BME280_pressure;Samples;Min_cycle;Max_cycle;Signal;HPM_P1;HPM_P2
2022/10/28 00:01:10;;;;;;;6.68;2.53;;;14.80;99.90;;;;;;5017879;28;20045;-72
2022/10/28 00:03:39;;;;;;;4.30;2.83;;;14.80;99.90;;;;;;5025281;28;20048;-72
2022/10/28 00:06:12;;;;;;;6.10;2.63;;;14.80;99.90;;;;;;5003513;28;20508;-71
2022/10/28 00:08:38;;;;;;;3.88;2.40;;;14.80;99.90;;;;;;5024879;28;20095;-72
2022/10/28 00:11:14;;;;;;;4.32;2.33;;;14.70;99.90;;;;;;5019859;28;20056;-72
2022/10/28 00:13:42;;;;;;;3.92;2.10;;;14.70;99.90;;;;;;5024220;28;20041;-72
2022/10/28 00:16:21;;;;;;;6.28;2.80;;;14.70;99.90;;;;;;5005965;28;20493;-72
2022/10/28 00:18:49;;;;;;;5.70;2.55;;;14.70;99.90;;;;;;5021339;28;20046;-72
2022/10/28 00:21:17;;;;;;;4.22;2.90;;;14.70;99.90;;;;;;5020545;28;20041;-72
2022/10/28 00:23:44;;;;;;;3.67;2.28;;;14.60;99.90;;;;;;5023865;28;20033;-72
2022/10/28 00:26:13;;;;;;;7.93;3.17;;;14.60;99.90;;;;;;5022844;28;20350;-73
2022/10/28 00:28:45;;;;;;;4.63;2.47;;;14.60;99.90;;;;;;5022949;28;20045;-73
2022/10/28 00:31:13;;;;;;;4.63;2.55;;;14.60;99.90;;;;;;5020735;28;20605;-73
2022/10/28 00:33:40;;;;;;;5.07;2.80;;;14.60;99.90;;;;;;5022853;28;20037;-72
2022/10/28 00:36:12;;;;;;;6.00;3.03;;;14.60;99.90;;;;;;5019768;28;20044;-73
2022/10/28 00:38:39;;;;;;;4.18;2.85;;;14.60;99.90;;;;;;5020916;28;20037;-73
2022/10/28 00:41:06;;;;;;;5.30;2.58;;;14.50;99.90;;;;;;5019225;28;20052;-73
2022/10/28 00:43:45;;;;;;;5.75;3.30;;;14.50;99.90;;;;;;5003780;28;20037;-74
2022/10/28 00:46:30;;;;;;;5.80;3.50;;;14.50;99.90;;;;;;5021798;28;20041;-72
2022/10/28 00:49:01;;;;;;;3.40;2.67;;;14.50;99.90;;;;;;5019747;28;20032;-73
2022/10/28 00:51:32;;;;;;;4.25;2.85;;;14.50;99.90;;;;;;5017255;28;20408;-73
2022/10/28 00:53:58;;;;;;;7.35;3.55;;;14.50;99.90;;;;;;5021764;28;20044;-74
2022/10/28 00:56:28;;;;;;;3.63;2.13;;;14.50;99.90;;;;;;5025782;28;20443;-73
2022/10/28 00:58:58;;;;;;;4.82;3.25;;;14.50;99.90;;;;;;5023278;28;20530;-73
2022/10/28 01:01:24;;;;;;;6.00;3.30;;;14.50;99.90;;;;;;5021077;28;20041;-73
2022/10/28 01:03:51;;;;;;;6.07;3.63;;;14.50;99.90;;;;;;4991264;28;20041;-73
2022/10/28 01:06:18;;;;;;;5.40;3.05;;;14.40;99.90;;;;;;5022632;28;20445;-73
2022/10/28 01:08:45;;;;;;;6.47;3.42;;;14.50;99.90;;;;;;5025294;28;20042;-73
2022/10/28 01:11:44;;;;;;;6.70;3.70;;;14.40;99.90;;;;;;5020757;28;20052;-73
2022/10/28 01:14:48;;;;;;;6.15;2.83;;;14.40;99.90;;;;;;5007722;28;20499;-74
2022/10/28 01:17:23;;;;;;;4.55;2.30;;;14.40;99.90;;;;;;4996666;28;20112;-71
2022/10/28 01:20:22;;;;;;;5.15;3.28;;;14.30;99.90;;;;;;5016124;28;20531;-72
2022/10/28 01:22:51;;;;;;;4.25;2.58;;;14.30;99.90;;;;;;5024088;28;20511;-73
2022/10/28 01:25:29;;;;;;;7.85;3.63;;;14.40;99.90;;;;;;5024198;28;20038;-73
2022/10/28 01:28:02;;;;;;;5.75;3.63;;;14.30;99.90;;;;;;5022876;28;20051;-73
2022/10/28 01:30:53;;;;;;;5.55;3.50;;;14.30;99.90;;;;;;5021739;28;20388;-73
2022/10/28 01:33:39;;;;;;;6.32;3.67;;;14.30;99.90;;;;;;5024354;28;20078;-72
2022/10/28 01:36:14;;;;;;;5.70;3.55;;;14.30;99.90;;;;;;5025385;28;20789;-72
2022/10/28 01:38:47;;;;;;;6.35;4.15;;;14.30;99.90;;;;;;5023125;28;20097;-72
2022/10/28 01:41:16;;;;;;;4.68;3.78;;;14.30;99.90;;;;;;5023562;28;20095;-73
2022/10/28 01:43:59;;;;;;;6.90;3.67;;;14.30;99.90;;;;;;5027196;28;20033;-74
2022/10/28 01:46:44;;;;;;;6.72;3.40;;;14.40;99.90;;;;;;5022607;28;20485;-73
2022/10/28 01:49:24;;;;;;;5.90;4.05;;;14.30;99.90;;;;;;5025393;28;20601;-73
2022/10/28 01:51:58;;;;;;;7.28;3.35;;;14.30;99.90;;;;;;5024322;28;20037;-72
2022/10/28 01:54:28;;;;;;;5.15;3.72;;;14.30;99.90;;;;;;5023126;28;20366;-73
2022/10/28 01:56:56;;;;;;;7.72;3.65;;;14.30;99.90;;;;;;5022607;28;20037;-72
2022/10/28 01:59:26;;;;;;;5.47;3.15;;;14.30;99.90;;;;;;5006118;28;20041;-72
2022/10/28 02:01:53;;;;;;;7.65;5.22;;;14.30;99.90;;;;;;5021517;28;20036;-72
2022/10/28 02:04:20;;;;;;;10.65;5.20;;;14.40;99.90;;;;;;5023734;28;20042;-73
2022/10/28 02:06:52;;;;;;;8.00;4.97;;;14.40;99.90;;;;;;5006734;28;20038;-73
2022/10/28 02:09:41;;;;;;;8.80;4.50;;;14.40;99.90;;;;;;5026167;28;20040;-73
2022/10/28 02:12:33;;;;;;;10.35;4.15;;;14.40;99.90;;;;;;5025810;28;20056;-74
2022/10/28 02:15:29;;;;;;;5.72;3.40;;;14.40;99.90;;;;;;5024292;28;20029;-73
2022/10/28 02:18:24;;;;;;;6.22;4.22;;;14.40;99.90;;;;;;5027547;28;20401;-72
2022/10/28 02:21:05;;;;;;;7.05;3.65;;;14.30;99.90;;;;;;5021363;28;20064;-72
2022/10/28 02:23:40;;;;;;;5.10;3.25;;;14.30;99.90;;;;;;5027610;28;20864;-72
2022/10/28 02:26:18;;;;;;;5.30;3.50;;;14.20;99.90;;;;;;5025930;28;20044;-72
2022/10/28 02:29:28;;;;;;;6.43;3.78;;;14.10;99.90;;;;;;5023497;28;20040;-72
2022/10/28 02:32:17;;;;;;;4.82;3.17;;;14.10;99.90;;;;;;5019732;28;20059;-71
2022/10/28 02:34:47;;;;;;;5.70;2.78;;;14.10;99.90;;;;;;5024926;28;20371;-72
2022/10/28 02:37:29;;;;;;;3.95;3.28;;;14.20;99.90;;;;;;5028934;28;20038;-72
2022/10/28 02:40:00;;;;;;;6.07;3.45;;;14.20;99.90;;;;;;5018312;28;20041;-72
2022/10/28 02:42:30;;;;;;;8.25;4.15;;;14.10;99.90;;;;;;5009199;28;20037;-72
2022/10/28 02:45:09;;;;;;;6.15;3.75;;;14.10;99.90;;;;;;5025559;28;20037;-72
2022/10/28 02:47:39;;;;;;;5.93;3.67;;;14.10;99.90;;;;;;5022787;28;20041;-72
2022/10/28 02:50:11;;;;;;;7.25;3.90;;;14.10;99.90;;;;;;5021942;28;20045;-72
2022/10/28 02:52:40;;;;;;;5.90;3.58;;;14.10;99.90;;;;;;5024224;28;20045;-72
2022/10/28 02:55:07;;;;;;;6.57;4.13;;;14.10;99.90;;;;;;5026070;28;20072;-72
2022/10/28 02:57:39;;;;;;;7.75;4.75;;;14.10;99.90;;;;;;5021190;28;20044;-73
2022/10/28 03:00:09;;;;;;;6.93;3.55;;;14.10;99.90;;;;;;5021199;28;20037;-73
2022/10/28 03:02:36;;;;;;;6.35;3.60;;;14.20;99.90;;;;;;5022913;28;20041;-73
2022/10/28 03:05:05;;;;;;;5.53;3.97;;;14.10;99.90;;;;;;5023430;28;20044;-73
2022/10/28 03:07:31;;;;;;;7.85;4.57;;;14.10;99.90;;;;;;5005646;28;20388;-73
2022/10/28 03:09:57;;;;;;;4.40;3.47;;;14.00;99.90;;;;;;5020652;28;20500;-72
2022/10/28 03:12:23;;;;;;;5.80;4.22;;;14.00;99.90;;;;;;5024072;28;20037;-73
2022/10/28 03:14:50;;;;;;;6.22;4.10;;;14.00;99.90;;;;;;5006583;28;20378;-72
2022/10/28 03:17:16;;;;;;;11.07;4.60;;;13.90;99.90;;;;;;5023567;28;20033;-72
2022/10/28 03:19:42;;;;;;;9.07;4.38;;;13.90;99.90;;;;;;5021734;28;20060;-72
2022/10/28 03:22:08;;;;;;;6.13;3.90;;;13.90;99.90;;;;;;5020298;28;20143;-73
2022/10/28 03:24:34;;;;;;;7.82;4.68;;;13.90;99.90;;;;;;5023963;28;20450;-72
2022/10/28 03:27:01;;;;;;;7.43;3.63;;;13.90;99.90;;;;;;5023518;28;20503;-72
2022/10/28 03:29:27;;;;;;;7.47;4.50;;;13.90;99.90;;;;;;5024003;28;20516;-72
2022/10/28 03:31:53;;;;;;;9.00;5.05;;;13.90;99.90;;;;;;5019607;28;20030;-72
2022/10/28 03:34:20;;;;;;;7.03;4.22;;;13.90;99.90;;;;;;5022076;28;20405;-73
2022/10/28 03:36:46;;;;;;;5.85;3.20;;;13.90;99.90;;;;;;5021409;28;20046;-73
2022/10/28 03:39:14;;;;;;;7.65;3.58;;;13.90;99.90;;;;;;5004882;28;20377;-72
2022/10/28 03:41:40;;;;;;;9.32;3.90;;;13.90;99.90;;;;;;5019667;28;20045;-73
2022/10/28 03:44:06;;;;;;;9.05;4.65;;;13.80;99.90;;;;;;5005877;28;20033;-73
2022/10/28 03:46:32;;;;;;;5.75;3.28;;;13.80;99.90;;;;;;5021622;28;20722;-72
2022/10/28 03:48:59;;;;;;;5.57;3.67;;;13.80;99.90;;;;;;5020842;28;20503;-72
2022/10/28 03:51:25;;;;;;;4.95;3.10;;;13.70;99.90;;;;;;5016178;28;20515;-72
2022/10/28 03:53:51;;;;;;;3.45;2.85;;;13.70;99.90;;;;;;5023490;28;20037;-72
2022/10/28 03:56:17;;;;;;;5.53;3.05;;;13.70;99.90;;;;;;5004031;28;20359;-72
2022/10/28 03:58:47;;;;;;;6.25;3.40;;;13.70;99.90;;;;;;5020908;28;20056;-72
2022/10/28 04:01:13;;;;;;;6.15;3.90;;;13.70;99.90;;;;;;5018845;28;20045;-72
2022/10/28 04:03:39;;;;;;;6.57;4.15;;;13.70;99.90;;;;;;5022620;28;20052;-72
2022/10/28 04:06:08;;;;;;;4.43;2.97;;;13.70;99.90;;;;;;5021163;28;20048;-73
2022/10/28 04:08:35;;;;;;;4.57;2.47;;;13.60;99.90;;;;;;5020815;28;20115;-72
2022/10/28 04:11:02;;;;;;;6.72;3.45;;;13.60;99.90;;;;;;5017193;28;20029;-72
2022/10/28 04:13:28;;;;;;;8.65;3.25;;;13.60;99.90;;;;;;5023703;28;20039;-72
2022/10/28 04:15:54;;;;;;;6.15;2.70;;;13.60;99.90;;;;;;5003836;28;20076;-72
2022/10/28 04:18:20;;;;;;;6.15;3.20;;;13.60;99.90;;;;;;5022431;28;20045;-72
2022/10/28 04:20:47;;;;;;;6.30;2.95;;;13.60;99.90;;;;;;5018750;28;20499;-72
2022/10/28 04:23:19;;;;;;;6.53;3.95;;;13.60;99.90;;;;;;5004980;28;20045;-73
2022/10/28 04:25:49;;;;;;;10.80;4.53;;;13.50;99.90;;;;;;5020664;28;20037;-72
2022/10/28 04:28:16;;;;;;;6.45;3.47;;;13.50;99.90;;;;;;5022745;28;20053;-73
2022/10/28 04:30:42;;;;;;;5.25;3.00;;;13.50;99.90;;;;;;5020894;28;20827;-73
2022/10/28 04:33:11;;;;;;;4.97;3.08;;;13.40;99.90;;;;;;5024878;28;20428;-73
2022/10/28 04:35:38;;;;;;;5.25;2.92;;;13.40;99.90;;;;;;5025165;28;20515;-73
2022/10/28 04:38:04;;;;;;;6.72;3.35;;;13.40;99.90;;;;;;5025325;28;20549;-72
2022/10/28 04:40:30;;;;;;;6.13;2.90;;;13.40;99.90;;;;;;5022757;28;20045;-72
2022/10/28 04:42:56;;;;;;;6.72;3.13;;;13.40;99.90;;;;;;5007967;28;20037;-73
2022/10/28 04:45:23;;;;;;;6.20;3.17;;;13.40;99.90;;;;;;5007411;28;20041;-72
2022/10/28 04:47:49;;;;;;;6.82;3.17;;;13.40;99.90;;;;;;5024807;28;20068;-72
2022/10/28 04:50:15;;;;;;;4.32;2.63;;;13.40;99.90;;;;;;5021107;28;20064;-72
2022/10/28 04:52:41;;;;;;;6.45;3.00;;;13.30;99.90;;;;;;5025719;28;20041;-72
2022/10/28 04:55:08;;;;;;;4.18;2.78;;;13.40;99.90;;;;;;5025274;28;20044;-73
2022/10/28 04:57:34;;;;;;;5.75;3.55;;;13.30;99.90;;;;;;5030090;28;20041;-73
2022/10/28 05:00:00;;;;;;;9.40;3.47;;;13.30;99.90;;;;;;5020482;28;20049;-72
2022/10/28 05:02:27;;;;;;;5.93;3.42;;;13.30;99.90;;;;;;5027322;28;20516;-72
2022/10/28 05:04:53;;;;;;;5.60;3.60;;;13.30;99.90;;;;;;5023159;28;20044;-72
2022/10/28 05:07:19;;;;;;;6.38;3.60;;;13.30;99.90;;;;;;5030583;28;20041;-73
2022/10/28 05:09:45;;;;;;;9.50;4.32;;;13.30;99.90;;;;;;5005975;28;20045;-72
2022/10/28 05:12:11;;;;;;;4.95;3.30;;;13.30;99.90;;;;;;5007106;28;20514;-73
2022/10/28 05:14:38;;;;;;;4.63;3.08;;;13.30;99.90;;;;;;5025407;28;20408;-73
2022/10/28 05:17:04;;;;;;;6.95;3.17;;;13.20;99.90;;;;;;5025085;28;20469;-72
2022/10/28 05:19:30;;;;;;;6.57;3.38;;;13.20;99.90;;;;;;5024818;28;20045;-72
2022/10/28 05:21:56;;;;;;;6.00;3.42;;;13.20;99.90;;;;;;5006706;28;20037;-73
2022/10/28 05:24:23;;;;;;;9.52;4.07;;;13.10;99.90;;;;;;5007479;28;20374;-72
2022/10/28 05:26:49;;;;;;;5.85;3.60;;;13.10;99.90;;;;;;5027247;28;20037;-73
2022/10/28 05:29:18;;;;;;;5.15;3.38;;;13.10;99.90;;;;;;5023042;28;20041;-72
2022/10/28 05:31:45;;;;;;;6.35;3.45;;;13.10;99.90;;;;;;5022128;28;20504;-73
2022/10/28 05:34:11;;;;;;;7.32;2.85;;;13.10;99.90;;;;;;5024746;28;20501;-73
2022/10/28 05:36:37;;;;;;;6.57;3.50;;;13.10;99.90;;;;;;5023552;28;20045;-73
2022/10/28 05:39:04;;;;;;;5.65;3.03;;;13.00;99.90;;;;;;5006113;28;20037;-72
2022/10/28 05:41:30;;;;;;;6.18;3.20;;;13.00;99.90;;;;;;5020395;28;20039;-72
2022/10/28 05:43:56;;;;;;;5.10;2.72;;;13.00;99.90;;;;;;5025824;28;20096;-72
2022/10/28 05:46:23;;;;;;;5.65;2.80;;;13.00;99.90;;;;;;5024924;28;20037;-72
2022/10/28 05:48:49;;;;;;;6.45;3.13;;;13.00;99.90;;;;;;5025393;28;20042;-72
2022/10/28 05:51:15;;;;;;;4.50;2.75;;;12.90;99.90;;;;;;5002815;28;20392;-72
2022/10/28 05:53:43;;;;;;;6.00;2.55;;;12.90;99.90;;;;;;5025976;28;20412;-72
2022/10/28 05:56:09;;;;;;;8.25;3.47;;;13.00;99.90;;;;;;5024115;28;20038;-72
2022/10/28 05:58:36;;;;;;;4.57;3.25;;;13.00;99.90;;;;;;5023844;28;20041;-73
2022/10/28 06:01:05;;;;;;;7.18;3.95;;;12.90;99.90;;;;;;5020089;28;20038;-73
2022/10/28 06:03:31;;;;;;;6.22;3.30;;;12.90;99.90;;;;;;5025168;28;20048;-73
2022/10/28 06:05:58;;;;;;;4.30;3.08;;;12.90;99.90;;;;;;5022371;28;20436;-72
2022/10/28 06:08:24;;;;;;;6.57;3.30;;;12.90;99.90;;;;;;5024556;28;20042;-73
2022/10/28 06:10:52;;;;;;;7.38;3.28;;;12.90;99.90;;;;;;5019449;28;20072;-73
2022/10/28 06:13:18;;;;;;;4.90;2.88;;;12.90;99.90;;;;;;5022859;28;20412;-72
2022/10/28 06:15:54;;;;;;;5.55;3.17;;;12.90;99.90;;;;;;5006597;28;20484;-72
2022/10/28 06:18:21;;;;;;;6.90;3.35;;;12.80;99.90;;;;;;5023171;28;20053;-72
2022/10/28 06:20:55;;;;;;;4.75;2.55;;;12.80;99.90;;;;;;5019905;28;20034;-72
2022/10/28 06:23:22;;;;;;;4.18;2.38;;;12.80;99.90;;;;;;5024941;28;20041;-73
2022/10/28 06:25:48;;;;;;;4.50;3.00;;;12.80;99.90;;;;;;5022880;28;20037;-73
2022/10/28 06:28:15;;;;;;;5.07;3.15;;;12.70;99.90;;;;;;5024182;28;20037;-72
2022/10/28 06:30:41;;;;;;;5.75;3.17;;;12.80;99.90;;;;;;5019190;28;20535;-72
2022/10/28 06:33:08;;;;;;;4.68;3.05;;;12.70;99.90;;;;;;5022394;28;20574;-73
2022/10/28 06:35:34;;;;;;;9.82;4.10;;;12.70;99.90;;;;;;5022667;28;20033;-72
2022/10/28 06:38:00;;;;;;;5.00;3.30;;;12.80;99.90;;;;;;5022349;28;20037;-73
2022/10/28 06:40:28;;;;;;;4.72;2.53;;;12.80;99.90;;;;;;5018917;28;20476;-72
2022/10/28 06:43:03;;;;;;;5.07;2.85;;;12.80;99.90;;;;;;5022967;28;20049;-72
2022/10/28 06:45:30;;;;;;;6.25;2.63;;;12.90;99.90;;;;;;5018438;28;20412;-72
2022/10/28 06:47:58;;;;;;;7.18;3.28;;;12.90;99.90;;;;;;5019556;28;20040;-72
2022/10/28 06:50:25;;;;;;;9.32;7.20;;;12.90;99.90;;;;;;5016245;28;20052;-73
2022/10/28 06:52:53;;;;;;;8.38;6.85;;;12.90;99.90;;;;;;5017139;28;20038;-72
2022/10/28 06:55:20;;;;;;;14.93;10.10;;;12.90;99.90;;;;;;5019674;28;20273;-72
2022/10/28 06:57:46;;;;;;;17.58;11.45;;;13.00;99.90;;;;;;5004368;28;20041;-72
2022/10/28 07:00:13;;;;;;;14.68;11.32;;;13.10;99.90;;;;;;5015830;28;20386;-72
2022/10/28 07:02:39;;;;;;;14.98;11.98;;;13.10;99.90;;;;;;5021038;28;20049;-72
2022/10/28 07:05:06;;;;;;;17.42;11.73;;;13.20;99.90;;;;;;5020139;28;20029;-72
2022/10/28 07:07:36;;;;;;;14.60;8.57;;;13.20;99.90;;;;;;5018378;28;20401;-73
2022/10/28 07:10:04;;;;;;;8.75;5.95;;;13.30;99.90;;;;;;5016162;28;20485;-72
2022/10/28 07:12:30;;;;;;;9.65;6.70;;;13.30;99.90;;;;;;5017838;28;20036;-71
2022/10/28 07:14:57;;;;;;;11.88;6.10;;;13.40;99.90;;;;;;5020197;28;20480;-72
2022/10/28 07:17:23;;;;;;;11.95;6.80;;;13.40;99.90;;;;;;5017296;28;20033;-72
2022/10/28 07:19:49;;;;;;;8.23;5.05;;;13.50;99.90;;;;;;4981881;28;20050;-71
2022/10/28 07:22:15;;;;;;;14.07;11.18;;;13.60;99.90;;;;;;4995571;28;20050;-71
2022/10/28 07:24:42;;;;;;;12.13;8.70;;;13.60;99.90;;;;;;4998916;28;20405;-73
2022/10/28 07:27:08;;;;;;;11.82;7.70;;;13.70;99.90;;;;;;4998354;28;20487;-71
2022/10/28 07:29:35;;;;;;;8.55;5.72;;;13.70;99.90;;;;;;4998685;28;20050;-72
2022/10/28 07:32:01;;;;;;;9.00;5.82;;;13.80;99.90;;;;;;4998205;28;20052;-71
2022/10/28 07:34:27;;;;;;;8.07;4.90;;;13.80;99.90;;;;;;4999008;28;20446;-72
2022/10/28 07:36:54;;;;;;;10.82;5.70;;;13.90;99.90;;;;;;4996260;28;20029;-72
2022/10/28 07:39:21;;;;;;;9.88;6.10;;;13.90;99.90;;;;;;4982991;28;20057;-72
2022/10/28 07:41:47;;;;;;;10.43;6.10;;;14.00;99.90;;;;;;4996672;28;20484;-72
2022/10/28 07:44:14;;;;;;;11.13;6.10;;;14.10;99.90;;;;;;4983115;28;20049;-72
2022/10/28 07:46:40;;;;;;;12.77;6.18;;;14.20;99.90;;;;;;4972916;28;20045;-72
2022/10/28 07:49:07;;;;;;;11.30;7.13;;;14.20;99.90;;;;;;4998792;28;20053;-72
2022/10/28 07:51:33;;;;;;;18.77;11.52;;;14.30;99.90;;;;;;4996449;28;20498;-73
2022/10/28 07:54:00;;;;;;;17.73;9.57;;;14.30;99.90;;;;;;4997484;28;20460;-72
2022/10/28 07:56:26;;;;;;;15.88;7.60;;;14.40;99.90;;;;;;4999113;28;20029;-72
2022/10/28 07:58:52;;;;;;;10.50;5.80;;;14.50;99.90;;;;;;4999478;28;20049;-72
2022/10/28 08:01:20;;;;;;;9.55;4.78;;;14.50;99.90;;;;;;4996984;28;20049;-73
2022/10/28 08:03:46;;;;;;;8.82;3.65;;;14.60;99.90;;;;;;4999474;28;20044;-72
2022/10/28 08:06:19;;;;;;;6.78;4.03;;;14.70;99.90;;;;;;5001334;28;20030;-72
2022/10/28 08:08:47;;;;;;;7.82;3.78;;;14.70;99.90;;;;;;4984364;28;20041;-72
2022/10/28 08:11:18;;;;;;;9.00;3.80;;;14.80;99.90;;;;;;4998297;28;20570;-73
2022/10/28 08:13:45;;;;;;;9.05;4.10;;;14.90;99.90;;;;;;5001348;28;20029;-72
2022/10/28 08:16:12;;;;;;;8.63;3.85;;;15.00;99.90;;;;;;5001474;28;20042;-72
2022/10/28 08:18:39;;;;;;;8.50;3.15;;;15.10;99.90;;;;;;4995869;28;20064;-72
2022/10/28 08:21:08;;;;;;;12.60;5.40;;;15.20;99.90;;;;;;5018427;28;20499;-72
2022/10/28 08:23:35;;;;;;;11.77;4.43;;;15.40;99.90;;;;;;5020609;28;20566;-72
2022/10/28 08:26:01;;;;;;;8.38;3.88;;;15.50;99.90;;;;;;5022704;28;20037;-72
2022/10/28 08:28:27;;;;;;;8.13;4.18;;;15.60;99.90;;;;;;5022447;28;20037;-72
2022/10/28 08:31:00;;;;;;;10.07;4.38;;;15.70;99.90;;;;;;5018107;28;20141;-72
2022/10/28 08:33:26;;;;;;;8.30;4.07;;;15.90;99.90;;;;;;5002106;28;20033;-73
2022/10/28 08:35:52;;;;;;;8.75;3.85;;;15.90;99.90;;;;;;5019304;28;20034;-72
2022/10/28 08:38:19;;;;;;;6.35;3.30;;;16.00;99.90;;;;;;5019764;28;20779;-72
2022/10/28 08:40:59;;;;;;;5.93;3.00;;;16.10;99.90;;;;;;5015815;28;20041;-73
2022/10/28 08:43:50;;;;;;;7.63;3.75;;;16.10;99.90;;;;;;5016655;28;20040;-72
2022/10/28 08:46:43;;;;;;;9.73;4.22;;;16.20;99.90;;;;;;5002347;28;20052;-73
2022/10/28 08:49:14;;;;;;;7.20;4.15;;;16.20;99.90;;;;;;5015549;28;20053;-73
2022/10/28 08:52:01;;;;;;;7.07;3.50;;;16.30;99.90;;;;;;5012957;28;20060;-72
2022/10/28 08:54:42;;;;;;;5.35;3.55;;;16.40;99.90;;;;;;5017878;28;20286;-73
2022/10/28 08:57:15;;;;;;;7.40;3.13;;;16.50;99.90;;;;;;5018118;28;20033;-73
2022/10/28 08:59:43;;;;;;;10.68;3.72;;;16.70;99.90;;;;;;5015528;28;20033;-71
2022/10/28 09:02:21;;;;;;;9.05;4.05;;;16.80;99.90;;;;;;5015223;28;20041;-72
2022/10/28 09:04:57;;;;;;;8.63;3.50;;;17.00;99.90;;;;;;5005524;28;20076;-72
2022/10/28 09:07:24;;;;;;;6.18;2.97;;;17.10;99.90;;;;;;5019688;28;20045;-72
2022/10/28 09:09:52;;;;;;;8.63;2.92;;;17.30;99.90;;;;;;5020640;28;20416;-72
2022/10/28 09:12:30;;;;;;;6.63;3.13;;;17.40;99.90;;;;;;5020589;28;20049;-73
2022/10/28 09:15:37;;;;;;;8.45;3.75;;;17.50;99.90;;;;;;5023727;28;20041;-72
2022/10/28 09:18:24;;;;;;;7.85;3.45;;;17.70;99.90;;;;;;5020264;28;20037;-71
2022/10/28 09:20:55;;;;;;;6.38;3.22;;;17.90;99.90;;;;;;5002992;28;20491;-71
2022/10/28 09:23:27;;;;;;;6.20;2.88;;;18.10;99.90;;;;;;5023186;28;20034;-72
2022/10/28 09:26:16;;;;;;;5.13;2.83;;;18.20;99.90;;;;;;5006352;28;20033;-71
2022/10/28 09:29:10;;;;;;;6.35;3.10;;;18.40;99.90;;;;;;5018190;28;20483;-71
2022/10/28 09:31:46;;;;;;;7.45;3.20;;;18.60;99.90;;;;;;5018227;28;20045;-72
2022/10/28 09:34:12;;;;;;;5.18;2.60;;;18.80;99.90;;;;;;5007349;28;20041;-71
2022/10/28 09:36:50;;;;;;;6.68;3.10;;;19.00;99.90;;;;;;5004960;28;20052;-71
2022/10/28 09:39:27;;;;;;;8.70;3.80;;;19.10;99.90;;;;;;5021833;28;20052;-71
2022/10/28 09:41:56;;;;;;;7.07;2.72;;;19.30;99.90;;;;;;5020213;28;20392;-71
2022/10/28 09:44:35;;;;;;;5.00;2.15;;;19.40;99.90;;;;;;5025593;28;20032;-71
2022/10/28 09:47:11;;;;;;;6.45;2.90;;;19.60;99.90;;;;;;5023319;28;20491;-70
2022/10/28 09:49:38;;;;;;;5.90;2.72;;;19.80;99.90;;;;;;5005141;28;20048;-71
2022/10/28 09:52:07;;;;;;;11.35;4.93;;;20.00;99.90;;;;;;5020590;28;20025;-71
2022/10/28 09:54:41;;;;;;;14.23;5.72;;;20.20;99.90;;;;;;5004262;28;20037;-71
2022/10/28 09:57:07;;;;;;;8.23;4.43;;;20.30;99.90;;;;;;5005462;28;20037;-71
2022/10/28 09:59:33;;;;;;;9.27;3.90;;;20.50;99.90;;;;;;5001706;28;20504;-70
2022/10/28 10:02:01;;;;;;;6.55;3.10;;;20.60;99.90;;;;;;5020106;28;20037;-71
2022/10/28 10:04:30;;;;;;;6.15;2.58;;;20.70;99.90;;;;;;5004779;28;20041;-71
2022/10/28 10:07:04;;;;;;;4.50;2.83;;;20.80;99.90;;;;;;5006734;28;20029;-70
2022/10/28 10:09:33;;;;;;;5.60;2.35;;;20.80;99.90;;;;;;5022180;28;20388;-71
2022/10/28 10:12:06;;;;;;;7.72;3.15;;;20.80;99.90;;;;;;5020060;28;20037;-71
2022/10/28 10:14:42;;;;;;;5.75;3.20;;;20.70;99.90;;;;;;5022146;28;20052;-71
2022/10/28 10:17:19;;;;;;;7.55;2.75;;;20.80;99.90;;;;;;5021864;28;20452;-72
2022/10/28 10:20:08;;;;;;;6.53;2.65;;;20.90;99.90;;;;;;5022801;28;20054;-70
2022/10/28 10:22:36;;;;;;;6.35;1.75;;;21.10;99.90;;;;;;5006865;28;20034;-70
2022/10/28 10:25:17;;;;;;;6.05;2.28;;;21.30;99.90;;;;;;5020317;28;20032;-70
2022/10/28 10:28:03;;;;;;;7.33;2.17;;;21.40;99.90;;;;;;5023800;28;20037;-71
2022/10/28 10:30:39;;;;;;;11.65;4.18;;;21.30;99.90;;;;;;5020064;28;20771;-70
2022/10/28 10:33:16;;;;;;;7.70;2.40;;;21.50;99.90;;;;;;5022245;28;20029;-71
2022/10/28 10:35:42;;;;;;;10.20;3.42;;;21.60;99.90;;;;;;5020414;28;20136;-70
2022/10/28 10:38:14;;;;;;;6.53;1.92;;;21.80;99.90;;;;;;5002072;28;20049;-70
2022/10/28 10:40:49;;;;;;;11.23;3.13;;;22.00;99.90;;;;;;4999509;28;20041;-70
2022/10/28 10:43:39;;;;;;;6.70;2.67;;;22.10;99.90;;;;;;5025187;28;20077;-70
2022/10/28 10:46:15;;;;;;;4.38;1.80;;;22.10;99.90;;;;;;5022235;28;20441;-71
2022/10/28 10:48:42;;;;;;;8.60;1.85;;;22.00;99.90;;;;;;5006229;28;20041;-70
2022/10/28 10:51:26;;;;;;;6.78;2.03;;;21.90;99.90;;;;;;5016407;28;20531;-71
2022/10/28 10:54:00;;;;;;;4.82;1.80;;;21.90;99.90;;;;;;5009866;28;20038;-71
2022/10/28 10:56:31;;;;;;;5.28;1.73;;;21.80;99.90;;;;;;5022216;28;20033;-70
2022/10/28 10:59:01;;;;;;;6.95;2.30;;;21.70;99.90;;;;;;5019066;28;20404;-71
2022/10/28 11:01:37;;;;;;;5.22;2.08;;;21.60;99.90;;;;;;5014695;28;20060;-71
2022/10/28 11:04:05;;;;;;;9.30;2.00;;;21.50;99.90;;;;;;5002720;28;20040;-72
2022/10/28 11:06:39;;;;;;;7.93;2.45;;;21.50;99.90;;;;;;5017609;28;20416;-72
2022/10/28 11:09:29;;;;;;;10.15;2.78;;;21.60;99.90;;;;;;5019293;28;20040;-72
2022/10/28 11:11:56;;;;;;;8.23;5.03;;;21.60;99.90;;;;;;5014435;28;20411;-72
2022/10/28 11:14:29;;;;;;;8.55;4.80;;;21.60;99.90;;;;;;5021214;28;20037;-71
2022/10/28 11:17:00;;;;;;;9.05;3.63;;;21.70;99.90;;;;;;5023138;28;20509;-72
2022/10/28 11:19:32;;;;;;;6.47;2.75;;;21.70;99.90;;;;;;5022051;28;20042;-71
2022/10/28 11:22:10;;;;;;;12.68;5.13;;;21.70;99.90;;;;;;5016637;28;20044;-71
2022/10/28 11:25:07;;;;;;;8.55;4.30;;;21.80;99.90;;;;;;5020818;28;20036;-71
2022/10/28 11:27:49;;;;;;;10.70;3.72;;;21.90;99.90;;;;;;5017754;28;20046;-71
2022/10/28 11:30:18;;;;;;;10.10;3.83;;;21.90;99.90;;;;;;4999891;28;20040;-70
2022/10/28 11:33:06;;;;;;;10.18;3.10;;;21.90;99.90;;;;;;5018255;28;20041;-71
2022/10/28 11:36:06;;;;;;;7.85;2.88;;;21.90;99.90;;;;;;5019590;28;20041;-71
2022/10/28 11:38:33;;;;;;;7.93;2.20;;;21.90;99.90;;;;;;5017819;28;20022;-70
2022/10/28 11:40:59;;;;;;;7.68;1.98;;;21.90;99.90;;;;;;5015620;28;20044;-71
2022/10/28 11:43:45;;;;;;;9.43;2.25;;;21.90;99.90;;;;;;5018537;28;20038;-71
2022/10/28 11:46:20;;;;;;;8.93;2.78;;;22.00;99.90;;;;;;5020244;28;20037;-71
2022/10/28 11:49:14;;;;;;;7.20;2.05;;;22.10;99.90;;;;;;5018995;28;20041;-71
2022/10/28 11:52:18;;;;;;;8.02;3.08;;;22.30;99.90;;;;;;5016511;28;20041;-72
2022/10/28 11:55:05;;;;;;;5.93;4.32;;;22.40;99.90;;;;;;5016697;28;20033;-71
2022/10/28 11:57:50;;;;;;;9.90;3.78;;;22.50;99.90;;;;;;5018829;28;20018;-71
2022/10/28 12:00:49;;;;;;;6.00;2.28;;;22.60;99.90;;;;;;5016366;28;20034;-70
2022/10/28 12:03:35;;;;;;;6.43;1.95;;;22.70;99.90;;;;;;5007098;28;20061;-70
2022/10/28 12:06:20;;;;;;;5.07;1.67;;;22.80;99.90;;;;;;5001957;28;20042;-70
2022/10/28 12:09:05;;;;;;;12.13;4.53;;;22.90;99.90;;;;;;5018590;28;20044;-73
2022/10/28 12:11:48;;;;;;;7.55;3.65;;;22.90;99.90;;;;;;5014293;28;20029;-72
2022/10/28 12:14:36;;;;;;;8.80;2.70;;;22.90;99.90;;;;;;5016043;28;20041;-71
2022/10/28 12:17:24;;;;;;;9.13;2.15;;;22.90;99.90;;;;;;5015533;28;20045;-71
2022/10/28 12:19:58;;;;;;;8.52;2.13;;;22.90;99.90;;;;;;4996500;28;20068;-72
2022/10/28 12:22:30;;;;;;;10.88;2.03;;;22.80;99.90;;;;;;4993557;28;20044;-71
2022/10/28 12:25:06;;;;;;;7.97;2.22;;;22.80;99.90;;;;;;4983470;28;20049;-71
2022/10/28 12:27:39;;;;;;;10.57;2.00;;;22.80;99.90;;;;;;4998906;28;20036;-71
2022/10/28 12:30:15;;;;;;;8.18;2.22;;;22.80;99.90;;;;;;4995684;28;20072;-72
2022/10/28 12:32:43;;;;;;;8.70;2.50;;;22.80;99.90;;;;;;4994619;28;20126;-70
2022/10/28 12:35:27;;;;;;;13.55;2.78;;;22.80;99.90;;;;;;5004749;28;20023;-71
2022/10/28 12:38:10;;;;;;;6.78;3.15;;;22.80;99.90;;;;;;5002412;28;20532;-71
2022/10/28 12:40:54;;;;;;;16.48;6.45;;;22.80;99.90;;;;;;4998240;28;20049;-71
2022/10/28 12:43:28;;;;;;;7.97;3.42;;;22.90;99.90;;;;;;5002963;28;20045;-72
2022/10/28 12:45:55;;;;;;;12.25;2.67;;;22.90;99.90;;;;;;5002576;28;20038;-72
2022/10/28 12:48:41;;;;;;;7.40;2.45;;;22.90;99.90;;;;;;4998145;28;20033;-72
2022/10/28 12:51:20;;;;;;;5.32;1.60;;;23.00;99.90;;;;;;4997329;28;20484;-72
2022/10/28 12:53:59;;;;;;;8.02;2.40;;;23.00;99.90;;;;;;5004469;28;20045;-72
2022/10/28 12:56:32;;;;;;;12.40;2.50;;;23.00;99.90;;;;;;5004435;28;20037;-72
2022/10/28 12:59:10;;;;;;;7.45;1.98;;;23.00;99.90;;;;;;5001471;28;20037;-71
2022/10/28 13:01:37;;;;;;;9.75;2.70;;;22.90;99.90;;;;;;4998422;28;20031;-72
2022/10/28 13:04:03;;;;;;;8.63;2.65;;;22.90;99.90;;;;;;5003934;28;20048;-72
2022/10/28 13:06:40;;;;;;;9.18;2.33;;;22.80;99.90;;;;;;5000532;28;20136;-71
2022/10/28 13:09:12;;;;;;;6.93;1.70;;;22.70;99.90;;;;;;5000836;28;20041;-72
2022/10/28 13:12:11;;;;;;;9.27;2.30;;;22.70;99.90;;;;;;4999293;28;20030;-72